N412WM KCHA-KAAF
Flight info
| Callsign | N412WM |
|---|---|
| Flight time | 0h 49m |
| Altitude | 45000 |
| Route | HEFIN |
| Aircraft | C750/M-SBDE3FGHRWXY/S |
Departure
| Time | 2026-05-04 00:49 |
|---|---|
| Airport | Chattanooga Metropolitan Airport (Lovell Field) (KCHA) |
Arrival
| Time | 2026-05-04 01:38 |
|---|---|
| Airport | Apalachicola Regional Airport (KAAF) |
| Time | Latitude | Longitude | Altitude | Speed | Heading |
|---|---|---|---|---|---|
| 2026-05-04 00:35 | 35.02553 | -85.20412 | 688 ft | 0 kts | 196° |
| 2026-05-04 00:41 | 35.02551 | -85.20415 | 688 ft | 1 kts | 229° |
| 2026-05-04 00:41 | 35.02557 | -85.20421 | 685 ft | 0 kts | 326° |
| 2026-05-04 00:42 | 35.02558 | -85.20422 | 685 ft | 1 kts | 330° |
| 2026-05-04 00:42 | 35.02601 | -85.20435 | 683 ft | 10 kts | 327° |
| 2026-05-04 00:42 | 35.02670 | -85.20465 | 684 ft | 14 kts | 14° |
| 2026-05-04 00:43 | 35.02783 | -85.20425 | 688 ft | 17 kts | 16° |
| 2026-05-04 00:43 | 35.02896 | -85.20385 | 688 ft | 17 kts | 18° |
| 2026-05-04 00:43 | 35.03010 | -85.20342 | 688 ft | 17 kts | 16° |
| 2026-05-04 00:43 | 35.03122 | -85.20303 | 688 ft | 18 kts | 15° |
| 2026-05-04 00:44 | 35.03224 | -85.20209 | 687 ft | 19 kts | 59° |
| 2026-05-04 00:44 | 35.03318 | -85.20109 | 687 ft | 18 kts | 19° |
| 2026-05-04 00:44 | 35.03434 | -85.20066 | 687 ft | 17 kts | 16° |
| 2026-05-04 00:44 | 35.03553 | -85.20026 | 685 ft | 18 kts | 17° |
| 2026-05-04 00:45 | 35.03642 | -85.19989 | 687 ft | 12 kts | 18° |
| 2026-05-04 00:45 | 35.03718 | -85.19959 | 688 ft | 11 kts | 18° |
| 2026-05-04 00:45 | 35.03787 | -85.19935 | 688 ft | 10 kts | 15° |
| 2026-05-04 00:45 | 35.03852 | -85.19914 | 688 ft | 9 kts | 15° |
| 2026-05-04 00:46 | 35.03911 | -85.19890 | 688 ft | 9 kts | 18° |
| 2026-05-04 00:46 | 35.03966 | -85.19869 | 688 ft | 8 kts | 16° |
| 2026-05-04 00:46 | 35.04024 | -85.19860 | 684 ft | 9 kts | 348° |
| 2026-05-04 00:46 | 35.04076 | -85.19895 | 688 ft | 9 kts | 330° |
| 2026-05-04 00:47 | 35.04136 | -85.19936 | 688 ft | 10 kts | 330° |
| 2026-05-04 00:47 | 35.04145 | -85.19943 | 686 ft | 1 kts | 329° |
| 2026-05-04 00:47 | 35.04166 | -85.19959 | 689 ft | 4 kts | 323° |
| 2026-05-04 00:47 | 35.04170 | -85.19964 | 689 ft | 0 kts | 314° |
| 2026-05-04 00:48 | 35.04181 | -85.19980 | 689 ft | 3 kts | 306° |
| 2026-05-04 00:48 | 35.04192 | -85.20011 | 689 ft | 4 kts | 284° |
| 2026-05-04 00:48 | 35.04190 | -85.20043 | 690 ft | 4 kts | 243° |
| 2026-05-04 00:48 | 35.04153 | -85.20063 | 685 ft | 8 kts | 194° |
| 2026-05-04 00:49 | 35.03906 | -85.20151 | 689 ft | 92 kts | 195° |
| 2026-05-04 00:49 | 35.03057 | -85.20459 | 935 ft | 144 kts | 198° |
| 2026-05-04 00:49 | 35.01998 | -85.20818 | 1423 ft | 170 kts | 195° |
| 2026-05-04 00:49 | 35.00769 | -85.21108 | 1903 ft | 196 kts | 192° |
| 2026-05-04 00:50 | 34.99321 | -85.21250 | 2175 ft | 225 kts | 182° |
| 2026-05-04 00:50 | 34.97661 | -85.21300 | 2770 ft | 248 kts | 184° |
| 2026-05-04 00:50 | 34.95909 | -85.21347 | 3484 ft | 256 kts | 181° |
| 2026-05-04 00:50 | 34.94095 | -85.21252 | 4006 ft | 267 kts | 178° |
| 2026-05-04 00:51 | 34.92209 | -85.21064 | 4384 ft | 277 kts | 177° |
| 2026-05-04 00:51 | 34.90345 | -85.20899 | 5886 ft | 266 kts | 178° |
| 2026-05-04 00:51 | 34.88451 | -85.20766 | 6746 ft | 280 kts | 179° |
| 2026-05-04 00:51 | 34.86492 | -85.20627 | 7809 ft | 284 kts | 178° |
| 2026-05-04 00:52 | 34.84501 | -85.20472 | 8921 ft | 290 kts | 178° |
| 2026-05-04 00:52 | 34.82464 | -85.20314 | 9947 ft | 297 kts | 178° |
| 2026-05-04 00:52 | 34.80349 | -85.20154 | 10538 ft | 316 kts | 178° |
| 2026-05-04 00:52 | 34.78056 | -85.19983 | 10785 ft | 344 kts | 178° |
| 2026-05-04 00:53 | 34.75578 | -85.19794 | 11054 ft | 366 kts | 178° |
| 2026-05-04 00:53 | 34.73036 | -85.19596 | 11933 ft | 367 kts | 178° |
| 2026-05-04 00:53 | 34.70466 | -85.19400 | 12699 ft | 372 kts | 178° |
| 2026-05-04 00:53 | 34.67865 | -85.19205 | 13458 ft | 377 kts | 178° |
| 2026-05-04 00:54 | 34.65263 | -85.19008 | 14169 ft | 382 kts | 178° |
| 2026-05-04 00:54 | 34.62599 | -85.18804 | 14855 ft | 385 kts | 178° |
| 2026-05-04 00:54 | 34.59914 | -85.18600 | 15551 ft | 389 kts | 178° |
| 2026-05-04 00:54 | 34.57205 | -85.18396 | 16249 ft | 393 kts | 178° |
| 2026-05-04 00:55 | 34.54461 | -85.18189 | 16966 ft | 397 kts | 179° |
| 2026-05-04 00:55 | 34.51686 | -85.17980 | 17695 ft | 401 kts | 179° |
| 2026-05-04 00:55 | 34.49214 | -85.17795 | 18337 ft | 405 kts | 179° |
| 2026-05-04 00:56 | 34.47370 | -85.17654 | 18775 ft | 408 kts | 179° |
| 2026-05-04 00:57 | 34.44520 | -85.17434 | 19505 ft | 411 kts | 179° |
| 2026-05-04 00:57 | 34.41651 | -85.17220 | 20215 ft | 415 kts | 179° |
| 2026-05-04 00:57 | 34.38753 | -85.17003 | 20951 ft | 419 kts | 179° |
| 2026-05-04 00:57 | 34.35830 | -85.16777 | 21709 ft | 421 kts | 179° |
| 2026-05-04 00:58 | 34.32895 | -85.16555 | 22420 ft | 425 kts | 180° |
| 2026-05-04 00:58 | 34.29923 | -85.16336 | 23103 ft | 429 kts | 180° |
| 2026-05-04 00:58 | 34.26925 | -85.16112 | 23774 ft | 433 kts | 180° |
| 2026-05-04 00:58 | 34.23899 | -85.15883 | 24335 ft | 438 kts | 180° |
| 2026-05-04 00:59 | 34.20846 | -85.15653 | 24892 ft | 441 kts | 180° |
| 2026-05-04 00:59 | 34.17766 | -85.15422 | 25449 ft | 445 kts | 180° |
| 2026-05-04 00:59 | 34.14652 | -85.15188 | 25997 ft | 449 kts | 180° |
| 2026-05-04 00:59 | 34.11518 | -85.14953 | 26542 ft | 453 kts | 179° |
| 2026-05-04 01:00 | 34.08352 | -85.14717 | 27081 ft | 458 kts | 180° |
| 2026-05-04 01:00 | 34.05195 | -85.14482 | 27619 ft | 462 kts | 179° |
| 2026-05-04 01:00 | 34.01975 | -85.14240 | 28158 ft | 466 kts | 179° |
| 2026-05-04 01:00 | 33.98717 | -85.13996 | 28700 ft | 470 kts | 179° |
| 2026-05-04 01:01 | 33.95442 | -85.13752 | 29227 ft | 474 kts | 179° |
| 2026-05-04 01:01 | 33.92132 | -85.13506 | 29757 ft | 478 kts | 179° |
| 2026-05-04 01:01 | 33.88795 | -85.13256 | 30255 ft | 483 kts | 179° |
| 2026-05-04 01:01 | 33.85428 | -85.13005 | 30684 ft | 486 kts | 179° |
| 2026-05-04 01:02 | 33.82035 | -85.12752 | 31071 ft | 491 kts | 179° |
| 2026-05-04 01:02 | 33.78627 | -85.12499 | 31739 ft | 489 kts | 179° |
| 2026-05-04 01:02 | 33.75243 | -85.12248 | 32402 ft | 487 kts | 179° |
| 2026-05-04 01:02 | 33.71861 | -85.11998 | 33093 ft | 486 kts | 179° |
| 2026-05-04 01:03 | 33.68493 | -85.11747 | 33748 ft | 485 kts | 180° |
| 2026-05-04 01:03 | 33.65126 | -85.11496 | 34377 ft | 484 kts | 180° |
| 2026-05-04 01:03 | 33.61774 | -85.11248 | 35015 ft | 481 kts | 180° |
| 2026-05-04 01:03 | 33.58446 | -85.11001 | 35700 ft | 477 kts | 180° |
| 2026-05-04 01:04 | 33.55126 | -85.10757 | 36064 ft | 482 kts | 180° |
| 2026-05-04 01:04 | 33.51727 | -85.10511 | 36051 ft | 495 kts | 180° |
| 2026-05-04 01:04 | 33.48248 | -85.10255 | 36047 ft | 507 kts | 180° |
| 2026-05-04 01:05 | 33.41087 | -85.09720 | 36050 ft | 522 kts | 180° |
| 2026-05-04 01:05 | 33.33854 | -85.09189 | 36025 ft | 526 kts | 180° |
| 2026-05-04 01:06 | 33.26553 | -85.08650 | 36022 ft | 526 kts | 180° |
| 2026-05-04 01:06 | 33.19238 | -85.08114 | 36024 ft | 526 kts | 180° |
| 2026-05-04 01:07 | 33.11916 | -85.07578 | 36017 ft | 526 kts | 180° |
| 2026-05-04 01:07 | 33.04605 | -85.07042 | 36023 ft | 525 kts | 180° |
| 2026-05-04 01:08 | 32.97310 | -85.06511 | 36024 ft | 525 kts | 180° |
| 2026-05-04 01:08 | 32.90011 | -85.05976 | 36021 ft | 525 kts | 180° |
| 2026-05-04 01:09 | 32.82765 | -85.05451 | 36017 ft | 525 kts | 180° |
| 2026-05-04 01:09 | 32.75465 | -85.04919 | 36019 ft | 523 kts | 180° |
| 2026-05-04 01:10 | 32.68226 | -85.04395 | 36013 ft | 515 kts | 181° |
| 2026-05-04 01:10 | 32.61048 | -85.03875 | 36015 ft | 517 kts | 181° |
| 2026-05-04 01:11 | 32.53865 | -85.03355 | 36016 ft | 517 kts | 181° |
| 2026-05-04 01:11 | 32.46723 | -85.02837 | 36017 ft | 511 kts | 181° |
| 2026-05-04 01:12 | 32.39612 | -85.02329 | 36008 ft | 512 kts | 181° |
| 2026-05-04 01:12 | 32.32543 | -85.01817 | 35988 ft | 512 kts | 181° |
| 2026-05-04 01:13 | 32.25430 | -85.01308 | 35990 ft | 513 kts | 181° |
| 2026-05-04 01:13 | 32.18325 | -85.00796 | 35995 ft | 511 kts | 182° |
| 2026-05-04 01:14 | 32.11228 | -85.00290 | 36019 ft | 511 kts | 182° |
| 2026-05-04 01:14 | 32.04132 | -84.99781 | 36025 ft | 511 kts | 182° |
| 2026-05-04 01:15 | 31.97031 | -84.99276 | 35999 ft | 511 kts | 182° |
| 2026-05-04 01:15 | 31.89963 | -84.98772 | 36024 ft | 508 kts | 182° |
| 2026-05-04 01:16 | 31.82900 | -84.98267 | 36023 ft | 508 kts | 182° |
| 2026-05-04 01:16 | 31.75832 | -84.97766 | 36022 ft | 509 kts | 182° |
| 2026-05-04 01:17 | 31.68765 | -84.97263 | 36007 ft | 508 kts | 183° |
| 2026-05-04 01:17 | 31.61722 | -84.96765 | 36022 ft | 507 kts | 183° |
| 2026-05-04 01:17 | 31.58205 | -84.96515 | 35897 ft | 498 kts | 183° |
| 2026-05-04 01:18 | 31.54874 | -84.96266 | 35245 ft | 475 kts | 183° |
| 2026-05-04 01:18 | 31.51638 | -84.96035 | 34634 ft | 458 kts | 183° |
| 2026-05-04 01:18 | 31.48477 | -84.95825 | 34031 ft | 451 kts | 183° |
| 2026-05-04 01:18 | 31.45336 | -84.95611 | 33434 ft | 454 kts | 183° |
| 2026-05-04 01:19 | 31.42166 | -84.95383 | 32805 ft | 458 kts | 182° |
| 2026-05-04 01:19 | 31.38983 | -84.95154 | 32228 ft | 458 kts | 183° |
| 2026-05-04 01:19 | 31.35798 | -84.94932 | 31619 ft | 459 kts | 183° |
| 2026-05-04 01:19 | 31.32599 | -84.94711 | 31010 ft | 460 kts | 182° |
| 2026-05-04 01:20 | 31.29388 | -84.94485 | 30397 ft | 461 kts | 182° |
| 2026-05-04 01:20 | 31.26212 | -84.94256 | 29750 ft | 455 kts | 182° |
| 2026-05-04 01:20 | 31.23102 | -84.94037 | 29161 ft | 452 kts | 182° |
| 2026-05-04 01:20 | 31.19972 | -84.93822 | 28567 ft | 449 kts | 182° |
| 2026-05-04 01:21 | 31.16865 | -84.93604 | 27978 ft | 446 kts | 182° |
| 2026-05-04 01:21 | 31.13777 | -84.93385 | 27368 ft | 442 kts | 182° |
| 2026-05-04 01:21 | 31.10732 | -84.93169 | 26810 ft | 437 kts | 182° |
| 2026-05-04 01:21 | 31.07709 | -84.92960 | 26242 ft | 434 kts | 182° |
| 2026-05-04 01:22 | 31.04699 | -84.92752 | 25678 ft | 431 kts | 182° |
| 2026-05-04 01:22 | 31.01714 | -84.92542 | 25114 ft | 429 kts | 181° |
| 2026-05-04 01:22 | 30.98746 | -84.92334 | 24555 ft | 426 kts | 181° |
| 2026-05-04 01:22 | 30.95791 | -84.92128 | 23998 ft | 423 kts | 181° |
| 2026-05-04 01:23 | 30.92858 | -84.91924 | 23397 ft | 420 kts | 181° |
| 2026-05-04 01:23 | 30.89950 | -84.91720 | 22840 ft | 417 kts | 181° |
| 2026-05-04 01:23 | 30.87062 | -84.91519 | 22294 ft | 415 kts | 181° |
| 2026-05-04 01:23 | 30.84200 | -84.91320 | 21739 ft | 408 kts | 181° |
| 2026-05-04 01:24 | 30.81374 | -84.91123 | 21219 ft | 406 kts | 181° |
| 2026-05-04 01:24 | 30.78557 | -84.90927 | 20674 ft | 404 kts | 181° |
| 2026-05-04 01:24 | 30.75761 | -84.90732 | 20149 ft | 402 kts | 181° |
| 2026-05-04 01:24 | 30.72977 | -84.90537 | 19622 ft | 399 kts | 181° |
| 2026-05-04 01:25 | 30.70212 | -84.90346 | 19099 ft | 398 kts | 181° |
| 2026-05-04 01:25 | 30.67455 | -84.90155 | 18576 ft | 395 kts | 181° |
| 2026-05-04 01:25 | 30.64746 | -84.89967 | 18030 ft | 393 kts | 181° |
| 2026-05-04 01:25 | 30.62028 | -84.89778 | 17510 ft | 390 kts | 181° |
| 2026-05-04 01:26 | 30.59327 | -84.89591 | 16998 ft | 388 kts | 181° |
| 2026-05-04 01:26 | 30.56604 | -84.89403 | 16477 ft | 386 kts | 180° |
| 2026-05-04 01:26 | 30.53964 | -84.89221 | 15983 ft | 383 kts | 180° |
| 2026-05-04 01:26 | 30.51314 | -84.89037 | 15478 ft | 381 kts | 180° |
| 2026-05-04 01:27 | 30.48669 | -84.88853 | 14977 ft | 379 kts | 180° |
| 2026-05-04 01:27 | 30.46045 | -84.88672 | 14481 ft | 377 kts | 180° |
| 2026-05-04 01:27 | 30.43437 | -84.88492 | 13987 ft | 375 kts | 180° |
| 2026-05-04 01:27 | 30.40841 | -84.88313 | 13465 ft | 372 kts | 180° |
| 2026-05-04 01:28 | 30.38267 | -84.88136 | 12978 ft | 370 kts | 180° |
| 2026-05-04 01:28 | 30.35704 | -84.87959 | 12493 ft | 368 kts | 179° |
| 2026-05-04 01:28 | 30.33159 | -84.87784 | 12011 ft | 365 kts | 179° |
| 2026-05-04 01:28 | 30.30630 | -84.87611 | 11533 ft | 363 kts | 179° |
| 2026-05-04 01:29 | 30.28141 | -84.87438 | 11066 ft | 345 kts | 179° |
| 2026-05-04 01:29 | 30.25824 | -84.87274 | 10623 ft | 323 kts | 179° |
| 2026-05-04 01:29 | 30.23648 | -84.87126 | 10221 ft | 305 kts | 178° |
| 2026-05-04 01:29 | 30.21554 | -84.86980 | 9820 ft | 298 kts | 178° |
| 2026-05-04 01:30 | 30.19493 | -84.86836 | 9424 ft | 295 kts | 178° |
| 2026-05-04 01:30 | 30.17454 | -84.86691 | 9041 ft | 293 kts | 178° |
| 2026-05-04 01:30 | 30.15448 | -84.86546 | 8663 ft | 291 kts | 178° |
| 2026-05-04 01:30 | 30.13434 | -84.86419 | 8279 ft | 289 kts | 178° |
| 2026-05-04 01:31 | 30.11456 | -84.86293 | 7902 ft | 287 kts | 178° |
| 2026-05-04 01:31 | 30.09465 | -84.86156 | 7523 ft | 286 kts | 177° |
| 2026-05-04 01:31 | 30.07489 | -84.86018 | 7149 ft | 284 kts | 177° |
| 2026-05-04 01:31 | 30.05524 | -84.85884 | 6771 ft | 282 kts | 177° |
| 2026-05-04 01:32 | 30.03571 | -84.85750 | 6397 ft | 280 kts | 176° |
| 2026-05-04 01:32 | 30.01638 | -84.85619 | 6019 ft | 278 kts | 176° |
| 2026-05-04 01:32 | 29.99708 | -84.85487 | 5652 ft | 278 kts | 176° |
| 2026-05-04 01:32 | 29.97781 | -84.85355 | 5287 ft | 277 kts | 176° |
| 2026-05-04 01:33 | 29.95863 | -84.85223 | 4911 ft | 275 kts | 176° |
| 2026-05-04 01:33 | 29.93954 | -84.85093 | 4536 ft | 274 kts | 176° |
| 2026-05-04 01:33 | 29.92061 | -84.84963 | 4176 ft | 272 kts | 176° |
| 2026-05-04 01:33 | 29.90174 | -84.84834 | 3815 ft | 271 kts | 176° |
| 2026-05-04 01:34 | 29.88295 | -84.84705 | 3458 ft | 270 kts | 176° |
| 2026-05-04 01:34 | 29.86423 | -84.84577 | 3098 ft | 269 kts | 176° |
| 2026-05-04 01:34 | 29.84560 | -84.84451 | 2744 ft | 267 kts | 176° |
| 2026-05-04 01:34 | 29.82734 | -84.84653 | 2304 ft | 266 kts | 199° |
| 2026-05-04 01:35 | 29.81266 | -84.85812 | 2253 ft | 259 kts | 226° |
| 2026-05-04 01:35 | 29.80263 | -84.87554 | 2313 ft | 263 kts | 240° |
| 2026-05-04 01:35 | 29.79366 | -84.89398 | 2220 ft | 266 kts | 241° |
| 2026-05-04 01:35 | 29.78482 | -84.91191 | 1972 ft | 237 kts | 240° |
| 2026-05-04 01:36 | 29.77717 | -84.92722 | 1729 ft | 223 kts | 240° |
| 2026-05-04 01:36 | 29.76957 | -84.94248 | 1551 ft | 204 kts | 240° |
| 2026-05-04 01:36 | 29.76274 | -84.95623 | 1548 ft | 189 kts | 240° |
| 2026-05-04 01:36 | 29.75613 | -84.96954 | 1596 ft | 195 kts | 240° |
| 2026-05-04 01:37 | 29.75002 | -84.98177 | 1432 ft | 158 kts | 239° |
| 2026-05-04 01:37 | 29.74492 | -84.99187 | 1007 ft | 134 kts | 240° |
| 2026-05-04 01:37 | 29.74061 | -85.00056 | 740 ft | 122 kts | 240° |
| 2026-05-04 01:37 | 29.73645 | -85.00882 | 521 ft | 119 kts | 241° |
| 2026-05-04 01:38 | 29.73244 | -85.01698 | 251 ft | 114 kts | 242° |
| 2026-05-04 01:38 | 29.72854 | -85.02501 | 50 ft | 114 kts | 243° |
| 2026-05-04 01:38 | 29.72485 | -85.03245 | 29 ft | 112 kts | 239° |
| 2026-05-04 01:38 | 29.72224 | -85.03744 | 25 ft | 33 kts | 238° |
| 2026-05-04 01:39 | 29.72197 | -85.03788 | 26 ft | 0 kts | 198° |
| 2026-05-04 01:39 | 29.72209 | -85.03781 | 28 ft | 6 kts | 210° |
| 2026-05-04 01:40 | 29.72230 | -85.03755 | 25 ft | 0 kts | 300° |
| 2026-05-04 01:40 | 29.72231 | -85.03755 | 25 ft | 0 kts | 319° |
| 2026-05-04 01:40 | 29.72239 | -85.03754 | 27 ft | 0 kts | 40° |
| 2026-05-04 01:40 | 29.72243 | -85.03734 | 26 ft | 0 kts | 84° |
| 2026-05-04 01:41 | 29.72242 | -85.03733 | 26 ft | 0 kts | 92° |
| 2026-05-04 01:42 | 29.72214 | -85.03710 | 26 ft | 9 kts | 149° |
| 2026-05-04 01:42 | 29.72186 | -85.03670 | 26 ft | 5 kts | 107° |
| 2026-05-04 01:42 | 29.72176 | -85.03621 | 27 ft | 9 kts | 107° |
| 2026-05-04 01:42 | 29.72173 | -85.03537 | 27 ft | 10 kts | 64° |
| 2026-05-04 01:43 | 29.72209 | -85.03477 | 27 ft | 8 kts | 56° |
| 2026-05-04 01:43 | 29.72193 | -85.03433 | 27 ft | 6 kts | 141° |
| 2026-05-04 01:43 | 29.72191 | -85.03421 | 27 ft | 0 kts | 62° |